sensor_id;sensor_type;location;lat;lon;timestamp;pressure;altitude;pressure_sealevel;temperature;humidity
71384;BME280;67558;52.166;5.004;2023-04-03T00:00:02;103188.13;;;5.34;59.22
71384;BME280;67558;52.166;5.004;2023-04-03T00:02:28;103192.94;;;5.30;58.87
71384;BME280;67558;52.166;5.004;2023-04-03T00:04:53;103189.19;;;5.25;59.26
71384;BME280;67558;52.166;5.004;2023-04-03T00:07:18;103182.34;;;5.22;59.01
71384;BME280;67558;52.166;5.004;2023-04-03T00:09:43;103193.13;;;5.29;59.11
71384;BME280;67558;52.166;5.004;2023-04-03T00:12:09;103201.78;;;5.23;59.12
71384;BME280;67558;52.166;5.004;2023-04-03T00:14:35;103203.94;;;5.19;59.00
71384;BME280;67558;52.166;5.004;2023-04-03T00:17:01;103201.13;;;5.21;58.83
71384;BME280;67558;52.166;5.004;2023-04-03T00:19:26;103197.63;;;5.20;59.01
71384;BME280;67558;52.166;5.004;2023-04-03T00:21:51;103205.94;;;5.17;58.77
71384;BME280;67558;52.166;5.004;2023-04-03T00:24:18;103208.75;;;5.16;59.07
71384;BME280;67558;52.166;5.004;2023-04-03T00:26:44;103198.00;;;5.09;58.85
71384;BME280;67558;52.166;5.004;2023-04-03T00:29:09;103207.44;;;5.11;58.90
71384;BME280;67558;52.166;5.004;2023-04-03T00:31:35;103211.56;;;5.14;58.74
71384;BME280;67558;52.166;5.004;2023-04-03T00:34:00;103207.94;;;5.15;58.58
71384;BME280;67558;52.166;5.004;2023-04-03T00:36:26;103204.63;;;5.13;58.55
71384;BME280;67558;52.166;5.004;2023-04-03T00:38:51;103204.63;;;5.13;58.32
71384;BME280;67558;52.166;5.004;2023-04-03T00:41:16;103206.97;;;5.08;58.51
71384;BME280;67558;52.166;5.004;2023-04-03T00:43:42;103197.34;;;4.99;58.34
71384;BME280;67558;52.166;5.004;2023-04-03T00:46:07;103202.34;;;4.93;58.53
71384;BME280;67558;52.166;5.004;2023-04-03T00:48:39;103211.47;;;4.91;58.37
71384;BME280;67558;52.166;5.004;2023-04-03T00:51:09;103204.34;;;4.91;58.19
71384;BME280;67558;52.166;5.004;2023-04-03T00:53:44;103215.75;;;4.92;58.56
71384;BME280;67558;52.166;5.004;2023-04-03T00:56:13;103209.19;;;4.80;58.15
71384;BME280;67558;52.166;5.004;2023-04-03T00:58:45;103208.31;;;4.79;58.59
71384;BME280;67558;52.166;5.004;2023-04-03T01:01:16;103203.38;;;4.76;58.43
71384;BME280;67558;52.166;5.004;2023-04-03T01:03:42;103225.91;;;4.80;58.27
71384;BME280;67558;52.166;5.004;2023-04-03T01:06:07;103221.78;;;4.78;58.53
71384;BME280;67558;52.166;5.004;2023-04-03T01:08:33;103212.16;;;4.68;58.65
71384;BME280;67558;52.166;5.004;2023-04-03T01:10:59;103213.31;;;4.66;58.50
71384;BME280;67558;52.166;5.004;2023-04-03T01:13:29;103220.75;;;4.70;58.50
71384;BME280;67558;52.166;5.004;2023-04-03T01:15:55;103222.09;;;4.66;58.61
71384;BME280;67558;52.166;5.004;2023-04-03T01:18:22;103227.56;;;4.65;58.88
71384;BME280;67558;52.166;5.004;2023-04-03T01:23:24;103217.47;;;4.52;58.91
71384;BME280;67558;52.166;5.004;2023-04-03T01:25:53;103229.06;;;4.59;58.91
71384;BME280;67558;52.166;5.004;2023-04-03T01:28:29;103219.13;;;4.53;59.17
71384;BME280;67558;52.166;5.004;2023-04-03T01:33:45;103219.28;;;4.51;59.06
71384;BME280;67558;52.166;5.004;2023-04-03T01:36:15;103214.63;;;4.54;58.98
71384;BME280;67558;52.166;5.004;2023-04-03T01:38:41;103216.13;;;4.48;59.07
71384;BME280;67558;52.166;5.004;2023-04-03T01:41:06;103218.13;;;4.46;59.22
71384;BME280;67558;52.166;5.004;2023-04-03T01:43:32;103212.47;;;4.49;59.17
71384;BME280;67558;52.166;5.004;2023-04-03T01:45:57;103211.66;;;4.48;59.15
71384;BME280;67558;52.166;5.004;2023-04-03T01:48:22;103210.34;;;4.44;59.21
71384;BME280;67558;52.166;5.004;2023-04-03T01:50:48;103220.41;;;4.41;59.45
71384;BME280;67558;52.166;5.004;2023-04-03T01:53:13;103208.66;;;4.27;59.58
71384;BME280;67558;52.166;5.004;2023-04-03T01:55:39;103204.19;;;4.19;59.66
71384;BME280;67558;52.166;5.004;2023-04-03T01:58:04;103221.75;;;4.28;60.00
71384;BME280;67558;52.166;5.004;2023-04-03T02:00:30;103216.78;;;4.25;59.78
71384;BME280;67558;52.166;5.004;2023-04-03T02:02:56;103223.41;;;4.29;60.08
71384;BME280;67558;52.166;5.004;2023-04-03T02:05:22;103226.22;;;4.28;59.86
71384;BME280;67558;52.166;5.004;2023-04-03T02:07:47;103218.75;;;4.23;60.00
71384;BME280;67558;52.166;5.004;2023-04-03T02:10:12;103217.59;;;4.18;60.09
71384;BME280;67558;52.166;5.004;2023-04-03T02:12:38;103211.78;;;4.14;59.95
71384;BME280;67558;52.166;5.004;2023-04-03T02:15:04;103229.19;;;4.17;60.15
71384;BME280;67558;52.166;5.004;2023-04-03T02:17:29;103236.16;;;4.18;60.21
71384;BME280;67558;52.166;5.004;2023-04-03T02:19:55;103228.34;;;4.16;60.45
71384;BME280;67558;52.166;5.004;2023-04-03T02:22:20;103230.34;;;4.14;60.28
71384;BME280;67558;52.166;5.004;2023-04-03T02:24:45;103236.16;;;4.18;60.28
71384;BME280;67558;52.166;5.004;2023-04-03T02:27:11;103230.16;;;4.07;60.36
71384;BME280;67558;52.166;5.004;2023-04-03T02:29:36;103237.47;;;4.14;60.67
71384;BME280;67558;52.166;5.004;2023-04-03T02:32:01;103228.50;;;4.06;60.61
71384;BME280;67558;52.166;5.004;2023-04-03T02:34:27;103232.47;;;4.02;60.73
71384;BME280;67558;52.166;5.004;2023-04-03T02:36:52;103235.44;;;3.99;61.20
71384;BME280;67558;52.166;5.004;2023-04-03T02:39:17;103235.09;;;3.94;60.87
71384;BME280;67558;52.166;5.004;2023-04-03T02:41:43;103240.72;;;3.99;61.16
71384;BME280;67558;52.166;5.004;2023-04-03T02:44:09;103237.09;;;3.92;61.01
71384;BME280;67558;52.166;5.004;2023-04-03T02:46:35;103244.03;;;3.93;61.37
71384;BME280;67558;52.166;5.004;2023-04-03T02:49:00;103239.72;;;3.92;60.78
71384;BME280;67558;52.166;5.004;2023-04-03T02:51:25;103240.41;;;3.94;60.93
71384;BME280;67558;52.166;5.004;2023-04-03T02:53:51;103246.53;;;3.95;60.99
71384;BME280;67558;52.166;5.004;2023-04-03T02:56:17;103228.59;;;3.80;61.20
71384;BME280;67558;52.166;5.004;2023-04-03T02:58:44;103246.50;;;3.86;61.24
71384;BME280;67558;52.166;5.004;2023-04-03T03:01:09;103242.34;;;3.84;60.99
71384;BME280;67558;52.166;5.004;2023-04-03T03:03:35;103259.88;;;3.85;61.19
71384;BME280;67558;52.166;5.004;2023-04-03T03:06:08;103248.44;;;3.76;61.21
71384;BME280;67558;52.166;5.004;2023-04-03T03:08:34;103251.75;;;3.70;61.60
71384;BME280;67558;52.166;5.004;2023-04-03T03:11:00;103266.13;;;3.76;61.84
71384;BME280;67558;52.166;5.004;2023-04-03T03:13:26;103270.75;;;3.74;61.69
71384;BME280;67558;52.166;5.004;2023-04-03T03:15:51;103267.78;;;3.68;61.49
71384;BME280;67558;52.166;5.004;2023-04-03T03:18:16;103275.72;;;3.68;62.04
71384;BME280;67558;52.166;5.004;2023-04-03T03:20:42;103272.25;;;3.68;62.26
71384;BME280;67558;52.166;5.004;2023-04-03T03:23:07;103269.91;;;3.65;62.11
71384;BME280;67558;52.166;5.004;2023-04-03T03:25:33;103274.22;;;3.66;61.69
71384;BME280;67558;52.166;5.004;2023-04-03T03:27:58;103274.22;;;3.66;62.25
71384;BME280;67558;52.166;5.004;2023-04-03T03:30:23;103277.31;;;3.61;62.05
71384;BME280;67558;52.166;5.004;2023-04-03T03:32:49;103267.38;;;3.55;61.93
71384;BME280;67558;52.166;5.004;2023-04-03T03:35:15;103263.41;;;3.51;61.95
71384;BME280;67558;52.166;5.004;2023-04-03T03:37:40;103272.69;;;3.55;62.52
71384;BME280;67558;52.166;5.004;2023-04-03T03:40:06;103270.19;;;3.54;62.36
71384;BME280;67558;52.166;5.004;2023-04-03T03:42:31;103255.41;;;3.43;62.45
71384;BME280;67558;52.166;5.004;2023-04-03T03:44:57;103270.72;;;3.57;62.54
71384;BME280;67558;52.166;5.004;2023-04-03T03:47:22;103272.31;;;3.50;62.54
71384;BME280;67558;52.166;5.004;2023-04-03T03:49:47;103230.47;;;3.19;62.74
71384;BME280;67558;52.166;5.004;2023-04-03T03:52:13;103276.94;;;3.48;62.58
71384;BME280;67558;52.166;5.004;2023-04-03T03:54:38;103273.59;;;3.46;62.62
71384;BME280;67558;52.166;5.004;2023-04-03T03:57:04;103270.75;;;3.39;62.88
71384;BME280;67558;52.166;5.004;2023-04-03T03:59:29;103276.09;;;3.47;62.99
71384;BME280;67558;52.166;5.004;2023-04-03T04:01:55;103278.22;;;3.44;63.08
71384;BME280;67558;52.166;5.004;2023-04-03T04:04:20;103287.00;;;3.44;63.12
71384;BME280;67558;52.166;5.004;2023-04-03T04:06:46;103273.72;;;3.36;62.94
71384;BME280;67558;52.166;5.004;2023-04-03T04:09:11;103273.09;;;3.42;63.29
71384;BME280;67558;52.166;5.004;2023-04-03T04:11:37;103277.72;;;3.40;62.98
71384;BME280;67558;52.166;5.004;2023-04-03T04:14:02;103275.09;;;3.40;63.33
71384;BME280;67558;52.166;5.004;2023-04-03T04:16:27;103284.81;;;3.40;63.41
71384;BME280;67558;52.166;5.004;2023-04-03T04:18:53;103280.84;;;3.36;63.17
71384;BME280;67558;52.166;5.004;2023-04-03T04:21:18;103281.28;;;3.31;63.24
71384;BME280;67558;52.166;5.004;2023-04-03T04:23:43;103294.38;;;3.33;63.33
71384;BME280;67558;52.166;5.004;2023-04-03T04:26:09;103283.59;;;3.26;63.18
71384;BME280;67558;52.166;5.004;2023-04-03T04:28:35;103290.38;;;3.28;63.37
71384;BME280;67558;52.166;5.004;2023-04-03T04:31:00;103283.06;;;3.22;63.68
71384;BME280;67558;52.166;5.004;2023-04-03T04:33:25;103291.03;;;3.31;64.34
71384;BME280;67558;52.166;5.004;2023-04-03T04:35:51;103287.38;;;3.23;63.98
71384;BME280;67558;52.166;5.004;2023-04-03T04:38:17;103293.63;;;3.22;64.07
71384;BME280;67558;52.166;5.004;2023-04-03T04:40:42;103293.97;;;3.19;63.85
71384;BME280;67558;52.166;5.004;2023-04-03T04:43:08;103289.63;;;3.18;64.06
71384;BME280;67558;52.166;5.004;2023-04-03T04:45:33;103292.25;;;3.10;64.61
71384;BME280;67558;52.166;5.004;2023-04-03T04:47:58;103293.38;;;3.07;64.04
71384;BME280;67558;52.166;5.004;2023-04-03T04:50:24;103309.09;;;3.09;64.62
71384;BME280;67558;52.166;5.004;2023-04-03T04:52:49;103282.22;;;2.96;64.25
71384;BME280;67558;52.166;5.004;2023-04-03T04:55:14;103289.53;;;3.02;65.04
71384;BME280;67558;52.166;5.004;2023-04-03T04:57:40;103297.63;;;3.00;66.09
71384;BME280;67558;52.166;5.004;2023-04-03T05:00:07;103299.44;;;3.00;65.22
71384;BME280;67558;52.166;5.004;2023-04-03T05:02:32;103291.66;;;2.98;64.80
71384;BME280;67558;52.166;5.004;2023-04-03T05:04:58;103289.81;;;2.99;65.62
71384;BME280;67558;52.166;5.004;2023-04-03T05:07:24;103304.41;;;3.03;65.63
71384;BME280;67558;52.166;5.004;2023-04-03T05:09:49;103301.41;;;2.98;65.19
71384;BME280;67558;52.166;5.004;2023-04-03T05:12:15;103309.69;;;3.03;64.69
71384;BME280;67558;52.166;5.004;2023-04-03T05:14:41;103306.91;;;3.04;64.99
71384;BME280;67558;52.166;5.004;2023-04-03T05:17:06;103314.16;;;3.02;64.91
71384;BME280;67558;52.166;5.004;2023-04-03T05:19:31;103322.47;;;3.07;64.68
71384;BME280;67558;52.166;5.004;2023-04-03T05:21:57;103327.91;;;3.06;64.76
71384;BME280;67558;52.166;5.004;2023-04-03T05:24:22;103328.38;;;3.01;65.61
71384;BME280;67558;52.166;5.004;2023-04-03T05:26:48;103332.00;;;3.00;65.44
71384;BME280;67558;52.166;5.004;2023-04-03T05:29:13;103340.59;;;3.02;65.09
71384;BME280;67558;52.166;5.004;2023-04-03T05:31:38;103344.25;;;3.01;65.17
71384;BME280;67558;52.166;5.004;2023-04-03T05:34:04;103332.31;;;2.97;65.30
71384;BME280;67558;52.166;5.004;2023-04-03T05:36:29;103345.75;;;3.04;65.71
71384;BME280;67558;52.166;5.004;2023-04-03T05:38:54;103317.88;;;2.92;65.18
71384;BME280;67558;52.166;5.004;2023-04-03T05:41:21;103331.72;;;3.03;65.79
71384;BME280;67558;52.166;5.004;2023-04-03T05:43:47;103336.47;;;3.00;65.62
71384;BME280;67558;52.166;5.004;2023-04-03T05:46:14;103346.72;;;3.03;65.94
71384;BME280;67558;52.166;5.004;2023-04-03T05:48:41;103337.59;;;2.97;66.00
71384;BME280;67558;52.166;5.004;2023-04-03T05:51:07;103350.66;;;2.99;65.85
71384;BME280;67558;52.166;5.004;2023-04-03T05:53:35;103348.31;;;2.96;65.72
71384;BME280;67558;52.166;5.004;2023-04-03T05:56:02;103346.34;;;2.98;65.88
71384;BME280;67558;52.166;5.004;2023-04-03T05:58:28;103339.56;;;2.95;65.62
71384;BME280;67558;52.166;5.004;2023-04-03T06:00:53;103339.38;;;2.97;66.02
71384;BME280;67558;52.166;5.004;2023-04-03T06:03:19;103333.75;;;2.92;66.65
71384;BME280;67558;52.166;5.004;2023-04-03T06:05:44;103337.75;;;2.96;65.94
71384;BME280;67558;52.166;5.004;2023-04-03T06:08:11;103350.22;;;3.03;66.09
71384;BME280;67558;52.166;5.004;2023-04-03T06:10:37;103364.25;;;3.04;66.33
71384;BME280;67558;52.166;5.004;2023-04-03T06:13:03;103356.63;;;3.01;66.40
71384;BME280;67558;52.166;5.004;2023-04-03T06:15:28;103355.78;;;3.00;66.50
71384;BME280;67558;52.166;5.004;2023-04-03T06:17:54;103357.28;;;3.03;66.16
71384;BME280;67558;52.166;5.004;2023-04-03T06:20:20;103361.31;;;3.07;66.62
71384;BME280;67558;52.166;5.004;2023-04-03T06:22:46;103351.72;;;3.06;66.74
71384;BME280;67558;52.166;5.004;2023-04-03T06:25:11;103346.41;;;3.24;66.55
71384;BME280;67558;52.166;5.004;2023-04-03T06:27:37;103368.94;;;3.54;66.69
71384;BME280;67558;52.166;5.004;2023-04-03T06:30:03;103369.03;;;3.71;66.60
71384;BME280;67558;52.166;5.004;2023-04-03T06:32:29;103369.78;;;3.89;65.96
71384;BME280;67558;52.166;5.004;2023-04-03T06:34:55;103363.94;;;4.12;65.66
71384;BME280;67558;52.166;5.004;2023-04-03T06:37:22;103369.69;;;4.41;65.22
71384;BME280;67558;52.166;5.004;2023-04-03T06:39:48;103336.56;;;4.37;64.58
71384;BME280;67558;52.166;5.004;2023-04-03T06:42:13;103372.91;;;4.86;64.49
71384;BME280;67558;52.166;5.004;2023-04-03T06:44:39;103365.50;;;5.06;64.32
71384;BME280;67558;52.166;5.004;2023-04-03T06:47:04;103365.47;;;5.30;64.00
71384;BME280;67558;52.166;5.004;2023-04-03T06:49:31;103366.59;;;5.52;62.90
71384;BME280;67558;52.166;5.004;2023-04-03T06:51:57;103369.72;;;5.72;62.18
71384;BME280;67558;52.166;5.004;2023-04-03T06:54:23;103377.31;;;5.92;61.74
71384;BME280;67558;52.166;5.004;2023-04-03T06:56:48;103393.88;;;6.10;60.90
71384;BME280;67558;52.166;5.004;2023-04-03T06:59:14;103382.34;;;6.26;60.77
71384;BME280;67558;52.166;5.004;2023-04-03T07:01:40;103376.47;;;6.39;60.08
71384;BME280;67558;52.166;5.004;2023-04-03T07:04:06;103389.00;;;6.53;59.53
71384;BME280;67558;52.166;5.004;2023-04-03T07:06:31;103376.84;;;6.59;59.12
71384;BME280;67558;52.166;5.004;2023-04-03T07:08:58;103398.22;;;6.74;59.03
71384;BME280;67558;52.166;5.004;2023-04-03T07:11:24;103384.75;;;6.75;58.76
71384;BME280;67558;52.166;5.004;2023-04-03T07:13:50;103396.84;;;7.01;58.58
71384;BME280;67558;52.166;5.004;2023-04-03T07:16:16;103402.75;;;7.11;57.60
71384;BME280;67558;52.166;5.004;2023-04-03T07:18:41;103393.31;;;7.09;55.73
71384;BME280;67558;52.166;5.004;2023-04-03T07:21:07;103388.63;;;7.11;55.64
71384;BME280;67558;52.166;5.004;2023-04-03T07:23:33;103388.41;;;7.21;55.81
71384;BME280;67558;52.166;5.004;2023-04-03T07:25:58;103399.81;;;7.29;55.39
71384;BME280;67558;52.166;5.004;2023-04-03T07:28:24;103390.44;;;7.33;56.07
71384;BME280;67558;52.166;5.004;2023-04-03T07:30:51;103409.00;;;7.42;55.41
71384;BME280;67558;52.166;5.004;2023-04-03T07:33:20;103402.88;;;7.56;54.67
71384;BME280;67558;52.166;5.004;2023-04-03T07:35:45;103401.72;;;7.73;54.86
71384;BME280;67558;52.166;5.004;2023-04-03T07:38:11;103405.03;;;7.75;54.05
71384;BME280;67558;52.166;5.004;2023-04-03T07:40:37;103399.69;;;7.75;52.69
71384;BME280;67558;52.166;5.004;2023-04-03T07:43:04;103403.66;;;7.79;52.38
71384;BME280;67558;52.166;5.004;2023-04-03T07:45:30;103397.28;;;7.80;52.53
71384;BME280;67558;52.166;5.004;2023-04-03T07:47:56;103410.75;;;7.87;52.15
71384;BME280;67558;52.166;5.004;2023-04-03T07:50:22;103416.69;;;7.89;51.17
71384;BME280;67558;52.166;5.004;2023-04-03T07:52:47;103415.88;;;7.89;50.60
71384;BME280;67558;52.166;5.004;2023-04-03T07:55:14;103412.22;;;7.90;49.81
71384;BME280;67558;52.166;5.004;2023-04-03T07:57:39;103416.59;;;7.83;49.98
71384;BME280;67558;52.166;5.004;2023-04-03T08:00:06;103412.47;;;7.80;48.81
71384;BME280;67558;52.166;5.004;2023-04-03T08:02:32;103398.06;;;7.74;49.98
71384;BME280;67558;52.166;5.004;2023-04-03T08:04:58;103411.81;;;7.93;49.84
71384;BME280;67558;52.166;5.004;2023-04-03T08:07:25;103417.25;;;8.14;50.04
71384;BME280;67558;52.166;5.004;2023-04-03T08:09:51;103399.47;;;8.21;49.32
71384;BME280;67558;52.166;5.004;2023-04-03T08:12:16;103419.44;;;8.40;48.05
71384;BME280;67558;52.166;5.004;2023-04-03T08:14:42;103416.69;;;8.49;47.75
71384;BME280;67558;52.166;5.004;2023-04-03T08:17:08;103418.78;;;8.53;48.35
71384;BME280;67558;52.166;5.004;2023-04-03T08:19:37;103425.03;;;8.60;47.08
71384;BME280;67558;52.166;5.004;2023-04-03T08:22:03;103420.13;;;8.64;46.75
71384;BME280;67558;52.166;5.004;2023-04-03T08:24:32;103428.78;;;8.66;46.71
71384;BME280;67558;52.166;5.004;2023-04-03T08:26:57;103443.91;;;8.59;46.02
71384;BME280;67558;52.166;5.004;2023-04-03T08:29:23;103431.91;;;8.70;45.94
71384;BME280;67558;52.166;5.004;2023-04-03T08:31:50;103438.47;;;8.67;45.32
71384;BME280;67558;52.166;5.004;2023-04-03T08:34:16;103439.63;;;8.65;44.06
71384;BME280;67558;52.166;5.004;2023-04-03T08:36:42;103419.00;;;8.52;44.48
71384;BME280;67558;52.166;5.004;2023-04-03T08:39:07;103432.41;;;8.58;44.02
71384;BME280;67558;52.166;5.004;2023-04-03T08:41:35;103447.28;;;8.68;43.47
71384;BME280;67558;52.166;5.004;2023-04-03T08:49:33;103430.56;;;8.59;38.98
71384;BME280;67558;52.166;5.004;2023-04-03T08:52:05;103446.00;;;8.64;40.26
71384;BME280;67558;52.166;5.004;2023-04-03T08:57:05;103440.16;;;8.75;41.00
71384;BME280;67558;52.166;5.004;2023-04-03T08:59:38;103437.97;;;8.78;38.36
71384;BME280;67558;52.166;5.004;2023-04-03T09:02:25;103437.25;;;8.70;36.99
71384;BME280;67558;52.166;5.004;2023-04-03T09:04:54;103434.28;;;8.65;37.49
71384;BME280;67558;52.166;5.004;2023-04-03T09:07:30;103425.53;;;8.71;37.36
71384;BME280;67558;52.166;5.004;2023-04-03T09:10:00;103426.81;;;8.75;38.43
71384;BME280;67558;52.166;5.004;2023-04-03T09:12:36;103444.75;;;8.81;37.19
71384;BME280;67558;52.166;5.004;2023-04-03T09:15:24;103433.06;;;8.82;37.62
71384;BME280;67558;52.166;5.004;2023-04-03T09:23:36;103427.09;;;8.80;35.72
71384;BME280;67558;52.166;5.004;2023-04-03T09:26:44;103414.50;;;8.74;35.08
71384;BME280;67558;52.166;5.004;2023-04-03T09:29:06;103446.38;;;8.60;34.68
71384;BME280;67558;52.166;5.004;2023-04-03T09:31:42;103412.44;;;8.54;34.24
71384;BME280;67558;52.166;5.004;2023-04-03T09:34:30;103425.31;;;8.51;35.23
71384;BME280;67558;52.166;5.004;2023-04-03T09:36:59;103426.88;;;8.45;34.93
71384;BME280;67558;52.166;5.004;2023-04-03T09:39:47;103411.53;;;8.47;34.28
71384;BME280;67558;52.166;5.004;2023-04-03T09:42:25;103409.13;;;8.52;33.81
71384;BME280;67558;52.166;5.004;2023-04-03T09:45:04;103402.41;;;8.56;33.20
71384;BME280;67558;52.166;5.004;2023-04-03T09:47:32;103397.72;;;8.58;33.50
71384;BME280;67558;52.166;5.004;2023-04-03T09:52:41;103401.88;;;8.46;32.97
71384;BME280;67558;52.166;5.004;2023-04-03T09:55:16;103401.13;;;8.52;32.89
71384;BME280;67558;52.166;5.004;2023-04-03T09:57:44;103391.94;;;8.55;32.50
71384;BME280;67558;52.166;5.004;2023-04-03T10:00:35;103383.75;;;8.56;32.44
71384;BME280;67558;52.166;5.004;2023-04-03T10:03:03;103377.75;;;8.54;32.21
71384;BME280;67558;52.166;5.004;2023-04-03T10:05:39;103386.91;;;8.67;32.36
71384;BME280;67558;52.166;5.004;2023-04-03T10:10:47;103386.53;;;8.70;30.55
71384;BME280;67558;52.166;5.004;2023-04-03T10:13:20;103372.75;;;8.66;31.28
71384;BME280;67558;52.166;5.004;2023-04-03T10:16:05;103373.03;;;8.71;31.05
71384;BME280;67558;52.166;5.004;2023-04-03T10:18:49;103329.59;;;8.41;30.20
71384;BME280;67558;52.166;5.004;2023-04-03T10:26:45;103359.03;;;8.69;30.17
71384;BME280;67558;52.166;5.004;2023-04-03T10:34:19;103359.91;;;8.76;31.13
71384;BME280;67558;52.166;5.004;2023-04-03T10:37:16;103340.59;;;8.74;30.10
71384;BME280;67558;52.166;5.004;2023-04-03T10:39:47;103345.19;;;8.80;30.29
71384;BME280;67558;52.166;5.004;2023-04-03T10:42:50;103359.16;;;8.82;30.15
71384;BME280;67558;52.166;5.004;2023-04-03T10:45:24;103339.91;;;8.87;30.16
71384;BME280;67558;52.166;5.004;2023-04-03T10:48:29;103341.75;;;8.87;30.17
71384;BME280;67558;52.166;5.004;2023-04-03T10:51:27;103337.41;;;8.86;28.87
71384;BME280;67558;52.166;5.004;2023-04-03T10:54:53;103334.03;;;8.98;29.65
71384;BME280;67558;52.166;5.004;2023-04-03T10:57:08;103331.13;;;8.93;29.29
71384;BME280;67558;52.166;5.004;2023-04-03T10:59:56;103347.44;;;9.05;27.82
71384;BME280;67558;52.166;5.004;2023-04-03T11:02:33;103348.34;;;9.12;29.23
71384;BME280;67558;52.166;5.004;2023-04-03T11:05:17;103351.56;;;9.08;28.58
71384;BME280;67558;52.166;5.004;2023-04-03T11:07:47;103347.19;;;9.00;27.86
71384;BME280;67558;52.166;5.004;2023-04-03T11:15:19;103344.53;;;9.00;28.17
71384;BME280;67558;52.166;5.004;2023-04-03T11:20:26;103333.59;;;9.16;29.29
71384;BME280;67558;52.166;5.004;2023-04-03T11:23:03;103326.81;;;9.20;28.89
71384;BME280;67558;52.166;5.004;2023-04-03T11:25:39;103341.44;;;9.25;29.10
71384;BME280;67558;52.166;5.004;2023-04-03T11:28:13;103325.84;;;9.28;28.27
71384;BME280;67558;52.166;5.004;2023-04-03T11:36:25;103326.28;;;9.32;27.50
71384;BME280;67558;52.166;5.004;2023-04-03T11:38:49;103329.00;;;9.38;29.14
71384;BME280;67558;52.166;5.004;2023-04-03T11:41:25;103328.19;;;9.38;27.87
71384;BME280;67558;52.166;5.004;2023-04-03T11:44:12;103325.53;;;9.38;28.41
71384;BME280;67558;52.166;5.004;2023-04-03T11:47:02;103311.78;;;9.48;28.58
71384;BME280;67558;52.166;5.004;2023-04-03T11:50:03;103310.16;;;9.47;28.85
71384;BME280;67558;52.166;5.004;2023-04-03T12:08:47;103305.53;;;9.69;29.55
71384;BME280;67558;52.166;5.004;2023-04-03T12:11:32;103285.16;;;9.68;28.73
71384;BME280;67558;52.166;5.004;2023-04-03T12:14:12;103277.41;;;9.73;29.62
71384;BME280;67558;52.166;5.004;2023-04-03T12:16:46;103274.31;;;9.76;29.86
71384;BME280;67558;52.166;5.004;2023-04-03T12:24:34;103277.00;;;9.82;29.31
71384;BME280;67558;52.166;5.004;2023-04-03T12:27:05;103265.09;;;9.85;29.89
71384;BME280;67558;52.166;5.004;2023-04-03T12:40:50;103239.59;;;9.89;29.55
71384;BME280;67558;52.166;5.004;2023-04-03T12:46:12;103258.53;;;9.81;29.59
71384;BME280;67558;52.166;5.004;2023-04-03T12:48:55;103234.25;;;9.89;29.64
71384;BME280;67558;52.166;5.004;2023-04-03T12:54:01;103241.88;;;9.86;29.52
71384;BME280;67558;52.166;5.004;2023-04-03T12:56:32;103227.09;;;9.90;29.84
71384;BME280;67558;52.166;5.004;2023-04-03T13:01:57;103223.00;;;10.00;29.64
71384;BME280;67558;52.166;5.004;2023-04-03T13:04:24;103210.03;;;10.04;29.49
71384;BME280;67558;52.166;5.004;2023-04-03T13:06:50;103218.91;;;10.04;30.20
71384;BME280;67558;52.166;5.004;2023-04-03T13:09:28;103220.94;;;10.02;29.79
71384;BME280;67558;52.166;5.004;2023-04-03T13:12:13;103198.09;;;10.00;29.38
71384;BME280;67558;52.166;5.004;2023-04-03T13:14:39;103208.00;;;10.13;29.52
71384;BME280;67558;52.166;5.004;2023-04-03T13:17:13;103213.94;;;10.08;29.17
71384;BME280;67558;52.166;5.004;2023-04-03T13:19:41;103208.84;;;10.13;29.43
71384;BME280;67558;52.166;5.004;2023-04-03T13:22:33;103223.03;;;10.20;30.09
71384;BME280;67558;52.166;5.004;2023-04-03T13:25:08;103185.56;;;10.14;29.00
71384;BME280;67558;52.166;5.004;2023-04-03T13:27:36;103199.97;;;10.19;29.49
71384;BME280;67558;52.166;5.004;2023-04-03T13:30:05;103196.91;;;10.22;29.83
71384;BME280;67558;52.166;5.004;2023-04-03T13:32:32;103201.25;;;10.30;30.29
71384;BME280;67558;52.166;5.004;2023-04-03T13:34:59;103198.78;;;10.35;30.46
71384;BME280;67558;52.166;5.004;2023-04-03T13:37:31;103207.44;;;10.37;30.91
71384;BME280;67558;52.166;5.004;2023-04-03T13:40:13;103223.50;;;10.31;30.01
71384;BME280;67558;52.166;5.004;2023-04-03T13:42:41;103211.13;;;10.36;30.29
71384;BME280;67558;52.166;5.004;2023-04-03T13:45:22;103214.81;;;10.29;29.47
71384;BME280;67558;52.166;5.004;2023-04-03T13:47:52;103204.75;;;10.31;29.31
71384;BME280;67558;52.166;5.004;2023-04-03T13:50:22;103207.22;;;10.32;29.77
71384;BME280;67558;52.166;5.004;2023-04-03T13:52:55;103192.19;;;10.24;29.30
71384;BME280;67558;52.166;5.004;2023-04-03T13:55:26;103222.69;;;10.37;29.93
71384;BME280;67558;52.166;5.004;2023-04-03T14:03:00;103200.66;;;10.41;30.49
71384;BME280;67558;52.166;5.004;2023-04-03T14:05:26;103201.28;;;10.43;30.28
71384;BME280;67558;52.166;5.004;2023-04-03T14:07:54;103184.19;;;10.38;30.22
71384;BME280;67558;52.166;5.004;2023-04-03T14:10:21;103191.78;;;10.41;30.94
71384;BME280;67558;52.166;5.004;2023-04-03T14:12:47;103180.47;;;10.39;30.39
71384;BME280;67558;52.166;5.004;2023-04-03T14:15:30;103180.47;;;10.39;29.98
71384;BME280;67558;52.166;5.004;2023-04-03T14:17:59;103181.31;;;10.39;30.01
71384;BME280;67558;52.166;5.004;2023-04-03T14:20:27;103173.06;;;10.41;30.42
71384;BME280;67558;52.166;5.004;2023-04-03T14:22:52;103180.69;;;10.31;31.05
71384;BME280;67558;52.166;5.004;2023-04-03T14:25:21;103160.09;;;10.38;31.04
71384;BME280;67558;52.166;5.004;2023-04-03T14:27:51;103156.59;;;10.37;31.04
71384;BME280;67558;52.166;5.004;2023-04-03T14:30:22;103177.81;;;10.45;31.39
71384;BME280;67558;52.166;5.004;2023-04-03T14:32:50;103160.53;;;10.41;30.58
71384;BME280;67558;52.166;5.004;2023-04-03T14:35:17;103137.88;;;10.31;30.94
71384;BME280;67558;52.166;5.004;2023-04-03T14:37:45;103149.81;;;10.41;31.01
71384;BME280;67558;52.166;5.004;2023-04-03T14:40:16;103170.38;;;10.41;30.93
71384;BME280;67558;52.166;5.004;2023-04-03T14:42:43;103158.22;;;10.45;31.02